sensor_id;sensor_type;location;lat;lon;timestamp;pressure;altitude;pressure_sealevel;temperature;humidity
5651;BME280;40241;52.684;9.758;2023-05-19T00:01:14;102538.44;;;12.14;44.91
5651;BME280;40241;52.684;9.758;2023-05-19T00:03:56;102524.94;;;12.16;45.83
5651;BME280;40241;52.684;9.758;2023-05-19T00:06:25;102528.16;;;12.14;44.93
5651;BME280;40241;52.684;9.758;2023-05-19T00:09:01;102534.44;;;12.15;45.63
5651;BME280;40241;52.684;9.758;2023-05-19T00:11:27;102528.13;;;12.05;45.07
5651;BME280;40241;52.684;9.758;2023-05-19T00:13:54;102527.09;;;12.12;45.18
5651;BME280;40241;52.684;9.758;2023-05-19T00:16:21;102533.81;;;12.11;45.25
5651;BME280;40241;52.684;9.758;2023-05-19T00:18:46;102518.19;;;12.08;45.15
5651;BME280;40241;52.684;9.758;2023-05-19T00:21:13;102545.63;;;12.11;45.14
5651;BME280;40241;52.684;9.758;2023-05-19T00:23:39;102528.75;;;12.09;45.14
5651;BME280;40241;52.684;9.758;2023-05-19T00:26:04;102521.25;;;12.10;45.26
5651;BME280;40241;52.684;9.758;2023-05-19T00:28:29;102527.50;;;12.10;45.26
5651;BME280;40241;52.684;9.758;2023-05-19T00:30:55;102566.16;;;12.10;45.33
5651;BME280;40241;52.684;9.758;2023-05-19T00:33:20;102531.03;;;12.11;45.30
5651;BME280;40241;52.684;9.758;2023-05-19T00:35:46;102526.00;;;12.09;45.34
5651;BME280;40241;52.684;9.758;2023-05-19T00:38:11;102516.16;;;12.08;45.41
5651;BME280;40241;52.684;9.758;2023-05-19T00:40:36;102515.84;;;12.06;45.49
5651;BME280;40241;52.684;9.758;2023-05-19T00:43:02;102537.94;;;12.06;45.37
5651;BME280;40241;52.684;9.758;2023-05-19T00:45:29;102518.31;;;12.04;45.49
5651;BME280;40241;52.684;9.758;2023-05-19T00:47:55;102527.06;;;12.02;45.45
5651;BME280;40241;52.684;9.758;2023-05-19T00:50:20;102549.13;;;12.02;45.41
5651;BME280;40241;52.684;9.758;2023-05-19T00:52:48;102520.63;;;12.06;45.53
5651;BME280;40241;52.684;9.758;2023-05-19T00:55:13;102511.28;;;12.03;45.42
5651;BME280;40241;52.684;9.758;2023-05-19T00:57:39;102514.78;;;12.03;45.87
5651;BME280;40241;52.684;9.758;2023-05-19T01:00:05;102520.00;;;12.01;45.76
5651;BME280;40241;52.684;9.758;2023-05-19T01:02:31;102523.41;;;12.06;45.67
5651;BME280;40241;52.684;9.758;2023-05-19T01:04:57;102515.25;;;12.02;45.90
5651;BME280;40241;52.684;9.758;2023-05-19T01:07:23;102504.50;;;11.95;45.91
5651;BME280;40241;52.684;9.758;2023-05-19T01:09:50;102506.34;;;11.98;46.04
5651;BME280;40241;52.684;9.758;2023-05-19T01:12:15;102508.19;;;11.92;46.12
5651;BME280;40241;52.684;9.758;2023-05-19T01:14:41;102518.13;;;11.89;46.21
5651;BME280;40241;52.684;9.758;2023-05-19T01:17:25;102504.81;;;11.88;46.60
5651;BME280;40241;52.684;9.758;2023-05-19T01:22:57;102507.72;;;11.93;47.26
5651;BME280;40241;52.684;9.758;2023-05-19T01:25:38;102498.53;;;11.87;46.86
5651;BME280;40241;52.684;9.758;2023-05-19T01:31:12;102496.97;;;11.86;46.37
5651;BME280;40241;52.684;9.758;2023-05-19T01:33:41;102493.13;;;11.84;46.24
5651;BME280;40241;52.684;9.758;2023-05-19T01:36:07;102497.75;;;11.87;46.47
5651;BME280;40241;52.684;9.758;2023-05-19T01:38:37;102500.97;;;11.85;46.55
5651;BME280;40241;52.684;9.758;2023-05-19T01:41:05;102519.19;;;11.83;46.45
5651;BME280;40241;52.684;9.758;2023-05-19T01:43:32;102500.47;;;11.78;46.53
5651;BME280;40241;52.684;9.758;2023-05-19T01:45:57;102505.22;;;11.77;46.75
5651;BME280;40241;52.684;9.758;2023-05-19T01:48:24;102507.34;;;11.73;46.75
5651;BME280;40241;52.684;9.758;2023-05-19T01:50:51;102514.88;;;11.73;46.83
5651;BME280;40241;52.684;9.758;2023-05-19T01:53:16;102526.34;;;11.71;46.82
5651;BME280;40241;52.684;9.758;2023-05-19T01:55:47;102508.59;;;11.72;47.27
5651;BME280;40241;52.684;9.758;2023-05-19T01:58:19;102515.78;;;11.70;46.92
5651;BME280;40241;52.684;9.758;2023-05-19T02:00:59;102527.50;;;11.61;47.66
5651;BME280;40241;52.684;9.758;2023-05-19T02:03:40;102514.03;;;11.63;47.32
5651;BME280;40241;52.684;9.758;2023-05-19T02:08:57;102519.09;;;11.65;47.46
5651;BME280;40241;52.684;9.758;2023-05-19T02:11:34;102524.44;;;11.59;47.56
5651;BME280;40241;52.684;9.758;2023-05-19T02:14:05;102503.91;;;11.60;47.09
5651;BME280;40241;52.684;9.758;2023-05-19T02:16:32;102511.56;;;11.56;47.25
5651;BME280;40241;52.684;9.758;2023-05-19T02:18:59;102518.88;;;11.50;47.24
5651;BME280;40241;52.684;9.758;2023-05-19T02:21:25;102507.25;;;11.46;47.20
5651;BME280;40241;52.684;9.758;2023-05-19T02:23:50;102519.78;;;11.47;47.38
5651;BME280;40241;52.684;9.758;2023-05-19T02:26:15;102530.50;;;11.45;47.57
5651;BME280;40241;52.684;9.758;2023-05-19T02:28:41;102511.09;;;11.49;47.51
5651;BME280;40241;52.684;9.758;2023-05-19T02:31:06;102498.19;;;11.46;47.46
5651;BME280;40241;52.684;9.758;2023-05-19T02:33:34;102502.63;;;11.43;47.48
5651;BME280;40241;52.684;9.758;2023-05-19T02:36:00;102491.88;;;11.36;47.67
5651;BME280;40241;52.684;9.758;2023-05-19T02:38:25;102500.44;;;11.38;47.68
5651;BME280;40241;52.684;9.758;2023-05-19T02:40:51;102488.03;;;11.33;47.73
5651;BME280;40241;52.684;9.758;2023-05-19T02:43:17;102532.88;;;11.34;47.76
5651;BME280;40241;52.684;9.758;2023-05-19T02:45:42;102508.09;;;11.34;47.84
5651;BME280;40241;52.684;9.758;2023-05-19T02:48:08;102486.66;;;11.29;48.06
5651;BME280;40241;52.684;9.758;2023-05-19T02:50:33;102483.75;;;11.32;47.94
5651;BME280;40241;52.684;9.758;2023-05-19T02:52:58;102497.06;;;11.34;48.01
5651;BME280;40241;52.684;9.758;2023-05-19T02:55:24;102506.56;;;11.33;48.00
5651;BME280;40241;52.684;9.758;2023-05-19T02:57:49;102497.97;;;11.31;48.04
5651;BME280;40241;52.684;9.758;2023-05-19T03:00:15;102502.84;;;11.27;47.98
5651;BME280;40241;52.684;9.758;2023-05-19T03:02:40;102491.50;;;11.25;48.02
5651;BME280;40241;52.684;9.758;2023-05-19T03:05:08;102476.66;;;11.22;47.99
5651;BME280;40241;52.684;9.758;2023-05-19T03:07:34;102492.44;;;11.22;48.12
5651;BME280;40241;52.684;9.758;2023-05-19T03:10:00;102479.22;;;11.17;48.16
5651;BME280;40241;52.684;9.758;2023-05-19T03:12:28;102482.44;;;11.15;48.10
5651;BME280;40241;52.684;9.758;2023-05-19T03:14:53;102489.63;;;11.13;48.06
5651;BME280;40241;52.684;9.758;2023-05-19T03:17:18;102503.84;;;11.11;48.03
5651;BME280;40241;52.684;9.758;2023-05-19T03:19:44;102512.22;;;11.08;48.13
5651;BME280;40241;52.684;9.758;2023-05-19T03:22:09;102487.69;;;11.01;48.39
5651;BME280;40241;52.684;9.758;2023-05-19T03:24:35;102481.25;;;10.95;48.25
5651;BME280;40241;52.684;9.758;2023-05-19T03:27:00;102473.69;;;10.86;48.56
5651;BME280;40241;52.684;9.758;2023-05-19T03:29:26;102501.06;;;10.81;48.59
5651;BME280;40241;52.684;9.758;2023-05-19T03:31:51;102476.84;;;10.76;48.56
5651;BME280;40241;52.684;9.758;2023-05-19T03:34:17;102492.84;;;10.68;48.72
5651;BME280;40241;52.684;9.758;2023-05-19T03:36:42;102480.50;;;10.73;48.69
5651;BME280;40241;52.684;9.758;2023-05-19T03:39:09;102489.78;;;10.66;48.72
5651;BME280;40241;52.684;9.758;2023-05-19T03:41:35;102482.19;;;10.70;48.84
5651;BME280;40241;52.684;9.758;2023-05-19T03:44:00;102487.78;;;10.67;48.85
5651;BME280;40241;52.684;9.758;2023-05-19T03:46:26;102502.19;;;10.71;48.88
5651;BME280;40241;52.684;9.758;2023-05-19T03:48:51;102480.31;;;10.67;48.91
5651;BME280;40241;52.684;9.758;2023-05-19T03:51:16;102509.94;;;10.63;48.92
5651;BME280;40241;52.684;9.758;2023-05-19T03:53:42;102483.38;;;10.69;48.92
5651;BME280;40241;52.684;9.758;2023-05-19T03:56:08;102495.94;;;10.70;49.01
5651;BME280;40241;52.684;9.758;2023-05-19T03:58:35;102482.50;;;10.72;48.92
5651;BME280;40241;52.684;9.758;2023-05-19T04:01:03;102497.31;;;10.75;49.08
5651;BME280;40241;52.684;9.758;2023-05-19T04:03:28;102477.63;;;10.76;48.97
5651;BME280;40241;52.684;9.758;2023-05-19T04:05:54;102499.97;;;10.78;49.07
5651;BME280;40241;52.684;9.758;2023-05-19T04:08:19;102501.69;;;10.85;49.06
5651;BME280;40241;52.684;9.758;2023-05-19T04:10:45;102496.03;;;10.88;49.05
5651;BME280;40241;52.684;9.758;2023-05-19T04:13:10;102509.50;;;10.86;49.14
5651;BME280;40241;52.684;9.758;2023-05-19T04:15:35;102498.94;;;10.85;49.23
5651;BME280;40241;52.684;9.758;2023-05-19T04:18:01;102494.94;;;10.86;49.21
5651;BME280;40241;52.684;9.758;2023-05-19T04:20:26;102500.34;;;10.89;49.41
5651;BME280;40241;52.684;9.758;2023-05-19T04:22:52;102491.06;;;10.96;49.20
5651;BME280;40241;52.684;9.758;2023-05-19T04:25:17;102507.44;;;10.99;49.31
5651;BME280;40241;52.684;9.758;2023-05-19T04:27:44;102493.66;;;10.99;49.18
5651;BME280;40241;52.684;9.758;2023-05-19T04:30:10;102500.72;;;11.00;49.40
5651;BME280;40241;52.684;9.758;2023-05-19T04:32:36;102508.72;;;11.07;49.41
5651;BME280;40241;52.684;9.758;2023-05-19T04:35:01;102519.88;;;11.04;49.41
5651;BME280;40241;52.684;9.758;2023-05-19T04:37:27;102516.22;;;11.07;49.50
5651;BME280;40241;52.684;9.758;2023-05-19T04:39:54;102508.28;;;11.09;49.38
5651;BME280;40241;52.684;9.758;2023-05-19T04:42:19;102504.59;;;11.12;49.33
5651;BME280;40241;52.684;9.758;2023-05-19T04:44:45;102515.63;;;11.12;49.57
5651;BME280;40241;52.684;9.758;2023-05-19T04:47:13;102508.00;;;11.16;49.53
5651;BME280;40241;52.684;9.758;2023-05-19T04:49:39;102505.25;;;11.16;49.54
5651;BME280;40241;52.684;9.758;2023-05-19T04:52:06;102488.06;;;11.12;49.61
5651;BME280;40241;52.684;9.758;2023-05-19T04:54:35;102495.00;;;11.16;49.58
5651;BME280;40241;52.684;9.758;2023-05-19T04:57:01;102517.66;;;11.20;49.56
5651;BME280;40241;52.684;9.758;2023-05-19T04:59:26;102498.06;;;11.18;49.97
5651;BME280;40241;52.684;9.758;2023-05-19T05:01:51;102503.44;;;11.22;49.68
5651;BME280;40241;52.684;9.758;2023-05-19T05:04:17;102502.53;;;11.25;49.77
5651;BME280;40241;52.684;9.758;2023-05-19T05:06:42;102506.84;;;11.26;50.06
5651;BME280;40241;52.684;9.758;2023-05-19T05:09:12;102511.44;;;11.29;49.90
5651;BME280;40241;52.684;9.758;2023-05-19T05:11:38;102567.13;;;11.24;50.08
5651;BME280;40241;52.684;9.758;2023-05-19T05:14:04;102502.78;;;11.40;50.03
5651;BME280;40241;52.684;9.758;2023-05-19T05:16:30;102508.13;;;11.43;50.15
5651;BME280;40241;52.684;9.758;2023-05-19T05:18:56;102536.31;;;11.47;50.09
5651;BME280;40241;52.684;9.758;2023-05-19T05:21:22;102497.59;;;11.51;50.07
5651;BME280;40241;52.684;9.758;2023-05-19T05:23:49;102526.56;;;11.55;49.92
5651;BME280;40241;52.684;9.758;2023-05-19T05:26:19;102504.38;;;11.59;50.41
5651;BME280;40241;52.684;9.758;2023-05-19T05:28:47;102508.06;;;11.65;50.00
5651;BME280;40241;52.684;9.758;2023-05-19T05:31:13;102508.72;;;11.69;50.12
5651;BME280;40241;52.684;9.758;2023-05-19T05:33:39;102504.59;;;11.73;50.19
5651;BME280;40241;52.684;9.758;2023-05-19T05:36:04;102488.81;;;11.74;50.38
5651;BME280;40241;52.684;9.758;2023-05-19T05:38:30;102498.50;;;11.78;50.34
5651;BME280;40241;52.684;9.758;2023-05-19T05:40:55;102501.88;;;11.82;50.33
5651;BME280;40241;52.684;9.758;2023-05-19T05:43:21;102493.31;;;11.89;50.36
5651;BME280;40241;52.684;9.758;2023-05-19T05:45:46;102504.38;;;11.98;50.38
5651;BME280;40241;52.684;9.758;2023-05-19T05:48:12;102501.75;;;12.04;50.50
5651;BME280;40241;52.684;9.758;2023-05-19T05:50:37;102497.16;;;12.10;50.44
5651;BME280;40241;52.684;9.758;2023-05-19T05:53:04;102486.13;;;12.10;50.61
5651;BME280;40241;52.684;9.758;2023-05-19T05:55:30;102494.44;;;12.28;50.48
5651;BME280;40241;52.684;9.758;2023-05-19T05:57:56;102515.44;;;12.35;50.64
5651;BME280;40241;52.684;9.758;2023-05-19T06:00:22;102498.59;;;12.51;50.38
5651;BME280;40241;52.684;9.758;2023-05-19T06:02:49;102494.13;;;12.62;50.41
5651;BME280;40241;52.684;9.758;2023-05-19T06:05:15;102520.22;;;12.70;50.51
5651;BME280;40241;52.684;9.758;2023-05-19T06:07:41;102495.19;;;12.83;50.59
5651;BME280;40241;52.684;9.758;2023-05-19T06:10:07;102482.25;;;12.89;50.47
5651;BME280;40241;52.684;9.758;2023-05-19T06:12:33;102492.53;;;13.07;50.46
5651;BME280;40241;52.684;9.758;2023-05-19T06:15:00;102499.59;;;13.17;50.30
5651;BME280;40241;52.684;9.758;2023-05-19T06:17:25;102491.72;;;13.24;50.46
5651;BME280;40241;52.684;9.758;2023-05-19T06:19:50;102516.53;;;13.42;50.30
5651;BME280;40241;52.684;9.758;2023-05-19T06:22:16;102509.75;;;13.52;50.27
5651;BME280;40241;52.684;9.758;2023-05-19T06:24:41;102504.75;;;13.66;50.14
5651;BME280;40241;52.684;9.758;2023-05-19T06:27:07;102498.25;;;13.78;49.98
5651;BME280;40241;52.684;9.758;2023-05-19T06:29:32;102498.94;;;13.87;50.13
5651;BME280;40241;52.684;9.758;2023-05-19T06:31:57;102500.03;;;13.90;49.86
5651;BME280;40241;52.684;9.758;2023-05-19T06:34:23;102497.50;;;14.01;49.94
5651;BME280;40241;52.684;9.758;2023-05-19T06:36:48;102495.88;;;14.09;49.88
5651;BME280;40241;52.684;9.758;2023-05-19T06:39:13;102498.88;;;14.20;49.47
5651;BME280;40241;52.684;9.758;2023-05-19T06:41:39;102501.31;;;14.27;49.31
5651;BME280;40241;52.684;9.758;2023-05-19T06:44:05;102490.00;;;14.40;49.26
5651;BME280;40241;52.684;9.758;2023-05-19T06:46:31;102495.00;;;14.50;49.19
5651;BME280;40241;52.684;9.758;2023-05-19T06:48:56;102497.22;;;14.61;49.08
5651;BME280;40241;52.684;9.758;2023-05-19T06:51:22;102527.63;;;14.70;49.07
5651;BME280;40241;52.684;9.758;2023-05-19T06:53:48;102507.38;;;14.78;48.81
5651;BME280;40241;52.684;9.758;2023-05-19T06:56:13;102513.28;;;14.86;49.14
5651;BME280;40241;52.684;9.758;2023-05-19T06:58:40;102504.13;;;14.94;49.02
5651;BME280;40241;52.684;9.758;2023-05-19T07:01:05;102524.97;;;15.05;48.71
5651;BME280;40241;52.684;9.758;2023-05-19T07:03:31;102503.72;;;15.16;48.73
5651;BME280;40241;52.684;9.758;2023-05-19T07:05:56;102498.84;;;15.26;48.45
5651;BME280;40241;52.684;9.758;2023-05-19T07:08:21;102502.75;;;15.34;48.29
5651;BME280;40241;52.684;9.758;2023-05-19T07:10:47;102509.16;;;15.40;48.08
5651;BME280;40241;52.684;9.758;2023-05-19T07:13:12;102513.38;;;15.50;48.19
5651;BME280;40241;52.684;9.758;2023-05-19T07:15:37;102518.81;;;15.59;47.95
5651;BME280;40241;52.684;9.758;2023-05-19T07:18:03;102513.84;;;15.63;47.79
5651;BME280;40241;52.684;9.758;2023-05-19T07:20:28;102513.63;;;15.66;47.95
5651;BME280;40241;52.684;9.758;2023-05-19T07:22:54;102501.84;;;15.71;47.75
5651;BME280;40241;52.684;9.758;2023-05-19T07:25:19;102505.56;;;15.83;47.59
5651;BME280;40241;52.684;9.758;2023-05-19T07:27:44;102503.38;;;15.93;47.32
5651;BME280;40241;52.684;9.758;2023-05-19T07:30:10;102495.84;;;15.93;47.32
5651;BME280;40241;52.684;9.758;2023-05-19T07:32:36;102502.22;;;15.99;47.40
5651;BME280;40241;52.684;9.758;2023-05-19T07:35:01;102490.44;;;16.04;47.29
5651;BME280;40241;52.684;9.758;2023-05-19T07:37:27;102484.94;;;16.10;47.23
5651;BME280;40241;52.684;9.758;2023-05-19T07:39:52;102490.22;;;16.08;47.16
5651;BME280;40241;52.684;9.758;2023-05-19T07:42:17;102486.69;;;16.07;47.04
5651;BME280;40241;52.684;9.758;2023-05-19T07:44:43;102495.56;;;16.11;47.00
5651;BME280;40241;52.684;9.758;2023-05-19T07:47:08;102498.63;;;16.13;46.67
5651;BME280;40241;52.684;9.758;2023-05-19T07:49:34;102489.78;;;16.15;46.75
5651;BME280;40241;52.684;9.758;2023-05-19T07:51:59;102487.84;;;16.21;46.58
5651;BME280;40241;52.684;9.758;2023-05-19T07:54:25;102484.72;;;16.33;46.69
5651;BME280;40241;52.684;9.758;2023-05-19T07:56:50;102491.38;;;16.41;46.23
5651;BME280;40241;52.684;9.758;2023-05-19T07:59:16;102483.72;;;16.36;46.08
5651;BME280;40241;52.684;9.758;2023-05-19T08:01:41;102486.47;;;16.51;46.10
5651;BME280;40241;52.684;9.758;2023-05-19T08:04:07;102479.41;;;16.56;46.01
5651;BME280;40241;52.684;9.758;2023-05-19T08:06:32;102481.84;;;16.68;45.96
5651;BME280;40241;52.684;9.758;2023-05-19T08:08:57;102486.50;;;16.82;45.96
5651;BME280;40241;52.684;9.758;2023-05-19T08:11:23;102490.44;;;16.96;45.69
5651;BME280;40241;52.684;9.758;2023-05-19T08:13:48;102489.75;;;17.06;45.69
5651;BME280;40241;52.684;9.758;2023-05-19T08:16:17;102490.09;;;17.14;45.31
5651;BME280;40241;52.684;9.758;2023-05-19T08:18:42;102494.44;;;17.20;45.62
5651;BME280;40241;52.684;9.758;2023-05-19T08:21:07;102494.44;;;17.20;45.28
5651;BME280;40241;52.684;9.758;2023-05-19T08:23:33;102489.84;;;17.17;45.24
5651;BME280;40241;52.684;9.758;2023-05-19T08:25:59;102488.34;;;17.16;45.20
5651;BME280;40241;52.684;9.758;2023-05-19T08:28:24;102475.69;;;17.15;45.19
5651;BME280;40241;52.684;9.758;2023-05-19T08:30:50;102495.22;;;17.21;45.08
5651;BME280;40241;52.684;9.758;2023-05-19T08:33:16;102469.88;;;17.19;45.31
5651;BME280;40241;52.684;9.758;2023-05-19T08:35:42;102482.88;;;17.28;45.34
5651;BME280;40241;52.684;9.758;2023-05-19T08:38:07;102461.97;;;17.43;45.35
5651;BME280;40241;52.684;9.758;2023-05-19T08:40:33;102474.28;;;17.62;45.07
5651;BME280;40241;52.684;9.758;2023-05-19T08:43:01;102477.38;;;17.75;44.83
5651;BME280;40241;52.684;9.758;2023-05-19T08:45:27;102463.00;;;17.88;44.80
5651;BME280;40241;52.684;9.758;2023-05-19T08:47:54;102461.88;;;18.17;44.74
5651;BME280;40241;52.684;9.758;2023-05-19T08:50:28;102460.97;;;18.47;44.47
5651;BME280;40241;52.684;9.758;2023-05-19T08:53:11;102455.66;;;18.77;44.23
5651;BME280;40241;52.684;9.758;2023-05-19T08:58:23;102450.59;;;19.14;43.65
5651;BME280;40241;52.684;9.758;2023-05-19T09:00:49;102448.81;;;19.22;43.41
5651;BME280;40241;52.684;9.758;2023-05-19T09:03:15;102428.28;;;19.36;43.22
5651;BME280;40241;52.684;9.758;2023-05-19T09:05:41;102445.22;;;19.55;43.14
5651;BME280;40241;52.684;9.758;2023-05-19T09:08:07;102426.41;;;19.67;42.91
5651;BME280;40241;52.684;9.758;2023-05-19T09:10:32;102438.78;;;19.77;42.69
5651;BME280;40241;52.684;9.758;2023-05-19T09:12:58;102438.50;;;19.91;42.79
5651;BME280;40241;52.684;9.758;2023-05-19T09:15:25;102431.81;;;20.05;42.22
5651;BME280;40241;52.684;9.758;2023-05-19T09:18:05;102442.47;;;20.12;41.28
5651;BME280;40241;52.684;9.758;2023-05-19T09:20:31;102442.16;;;20.27;41.92
5651;BME280;40241;52.684;9.758;2023-05-19T09:23:00;102440.28;;;20.46;41.79
5651;BME280;40241;52.684;9.758;2023-05-19T09:25:25;102420.66;;;20.52;40.79
5651;BME280;40241;52.684;9.758;2023-05-19T09:27:53;102435.78;;;20.67;41.22
5651;BME280;40241;52.684;9.758;2023-05-19T09:30:19;102425.66;;;20.94;40.79
5651;BME280;40241;52.684;9.758;2023-05-19T09:32:44;102429.56;;;21.15;40.43
5651;BME280;40241;52.684;9.758;2023-05-19T09:35:13;102413.81;;;21.36;39.85
5651;BME280;40241;52.684;9.758;2023-05-19T09:37:42;102428.28;;;21.40;39.82
5651;BME280;40241;52.684;9.758;2023-05-19T09:40:08;102410.13;;;21.47;39.93
5651;BME280;40241;52.684;9.758;2023-05-19T09:42:37;102422.25;;;21.55;39.81
5651;BME280;40241;52.684;9.758;2023-05-19T09:45:03;102406.16;;;21.61;39.18
5651;BME280;40241;52.684;9.758;2023-05-19T09:47:39;102410.75;;;21.58;37.95
5651;BME280;40241;52.684;9.758;2023-05-19T09:50:06;102410.34;;;21.73;38.87
5651;BME280;40241;52.684;9.758;2023-05-19T09:52:34;102404.13;;;21.80;38.42
5651;BME280;40241;52.684;9.758;2023-05-19T09:55:00;102395.69;;;21.86;38.33
5651;BME280;40241;52.684;9.758;2023-05-19T09:57:32;102392.28;;;21.93;37.69
5651;BME280;40241;52.684;9.758;2023-05-19T10:00:01;102402.25;;;22.07;38.13
5651;BME280;40241;52.684;9.758;2023-05-19T10:02:32;102407.41;;;22.21;38.04
5651;BME280;40241;52.684;9.758;2023-05-19T10:04:59;102412.56;;;22.17;37.53
5651;BME280;40241;52.684;9.758;2023-05-19T10:07:25;102397.75;;;22.04;37.54
5651;BME280;40241;52.684;9.758;2023-05-19T10:09:51;102392.13;;;22.04;37.89
5651;BME280;40241;52.684;9.758;2023-05-19T10:12:19;102387.13;;;21.97;37.51
5651;BME280;40241;52.684;9.758;2023-05-19T10:14:45;102394.84;;;21.91;37.58
5651;BME280;40241;52.684;9.758;2023-05-19T10:17:12;102400.03;;;21.81;37.40
5651;BME280;40241;52.684;9.758;2023-05-19T10:19:38;102395.25;;;21.76;37.81
5651;BME280;40241;52.684;9.758;2023-05-19T10:22:04;102381.19;;;22.00;37.71
5651;BME280;40241;52.684;9.758;2023-05-19T10:24:29;102372.31;;;22.15;37.30
5651;BME280;40241;52.684;9.758;2023-05-19T10:27:09;102356.50;;;21.99;36.59
5651;BME280;40241;52.684;9.758;2023-05-19T10:29:38;102368.09;;;21.90;37.47
5651;BME280;40241;52.684;9.758;2023-05-19T10:32:09;102375.16;;;21.96;37.23
5651;BME280;40241;52.684;9.758;2023-05-19T10:40:10;102369.06;;;22.11;36.93
5651;BME280;40241;52.684;9.758;2023-05-19T10:42:56;102367.13;;;22.06;35.89
5651;BME280;40241;52.684;9.758;2023-05-19T10:45:27;102370.81;;;21.95;36.74
5651;BME280;40241;52.684;9.758;2023-05-19T10:47:55;102356.81;;;21.95;36.70
5651;BME280;40241;52.684;9.758;2023-05-19T10:50:20;102368.34;;;22.10;36.50
5651;BME280;40241;52.684;9.758;2023-05-19T10:52:52;102350.81;;;22.23;34.37
5651;BME280;40241;52.684;9.758;2023-05-19T10:55:52;102342.69;;;22.19;35.03
5651;BME280;40241;52.684;9.758;2023-05-19T10:58:38;102345.38;;;22.12;34.85
5651;BME280;40241;52.684;9.758;2023-05-19T11:01:15;102354.47;;;21.99;34.03
5651;BME280;40241;52.684;9.758;2023-05-19T11:03:47;102352.19;;;21.79;35.18
5651;BME280;40241;52.684;9.758;2023-05-19T11:06:29;102358.50;;;21.61;33.97
5651;BME280;40241;52.684;9.758;2023-05-19T11:08:56;102353.06;;;21.50;36.08
5651;BME280;40241;52.684;9.758;2023-05-19T11:11:22;102360.56;;;21.60;36.33
5651;BME280;40241;52.684;9.758;2023-05-19T11:13:54;102353.31;;;21.71;35.57
5651;BME280;40241;52.684;9.758;2023-05-19T11:16:30;102371.13;;;21.73;35.22
5651;BME280;40241;52.684;9.758;2023-05-19T11:18:59;102352.19;;;21.79;35.26
5651;BME280;40241;52.684;9.758;2023-05-19T11:21:40;102351.19;;;21.77;32.24
5651;BME280;40241;52.684;9.758;2023-05-19T11:24:09;102350.28;;;21.69;34.69
5651;BME280;40241;52.684;9.758;2023-05-19T11:26:41;102337.19;;;21.77;34.68
5651;BME280;40241;52.684;9.758;2023-05-19T11:29:07;102349.38;;;21.79;34.99
5651;BME280;40241;52.684;9.758;2023-05-19T11:31:34;102344.91;;;21.71;34.90
5651;BME280;40241;52.684;9.758;2023-05-19T11:34:00;102344.19;;;21.64;34.73
5651;BME280;40241;52.684;9.758;2023-05-19T11:36:27;102329.97;;;21.62;34.49
5651;BME280;40241;52.684;9.758;2023-05-19T11:38:53;102329.44;;;21.64;34.66
5651;BME280;40241;52.684;9.758;2023-05-19T11:41:18;102339.22;;;21.76;34.93
5651;BME280;40241;52.684;9.758;2023-05-19T11:43:46;102324.22;;;22.11;34.54
5651;BME280;40241;52.684;9.758;2023-05-19T11:46:12;102363.00;;;22.57;34.41
5651;BME280;40241;52.684;9.758;2023-05-19T11:48:37;102329.84;;;23.00;33.50
5651;BME280;40241;52.684;9.758;2023-05-19T11:51:05;102323.91;;;23.04;33.21
5651;BME280;40241;52.684;9.758;2023-05-19T11:53:30;102323.91;;;22.91;33.33
5651;BME280;40241;52.684;9.758;2023-05-19T11:56:02;102331.13;;;22.86;33.05
5651;BME280;40241;52.684;9.758;2023-05-19T11:58:27;102330.91;;;22.84;33.48
5651;BME280;40241;52.684;9.758;2023-05-19T12:00:53;102340.53;;;22.89;33.61
5651;BME280;40241;52.684;9.758;2023-05-19T12:03:20;102323.91;;;23.04;33.42
5651;BME280;40241;52.684;9.758;2023-05-19T12:05:47;102331.88;;;23.00;33.47
5651;BME280;40241;52.684;9.758;2023-05-19T12:08:13;102328.13;;;22.97;33.65
5651;BME280;40241;52.684;9.758;2023-05-19T12:10:40;102327.56;;;22.86;33.32
5651;BME280;40241;52.684;9.758;2023-05-19T12:13:06;102318.16;;;22.83;33.39
5651;BME280;40241;52.684;9.758;2023-05-19T12:15:34;102330.47;;;22.80;33.24
5651;BME280;40241;52.684;9.758;2023-05-19T12:18:01;102327.16;;;22.95;33.33
5651;BME280;40241;52.684;9.758;2023-05-19T12:20:27;102325.53;;;23.39;33.15
5651;BME280;40241;52.684;9.758;2023-05-19T12:22:56;102318.19;;;23.82;32.46
5651;BME280;40241;52.684;9.758;2023-05-19T12:25:23;102321.69;;;23.96;32.21
5651;BME280;40241;52.684;9.758;2023-05-19T12:27:49;102329.59;;;23.98;32.05
5651;BME280;40241;52.684;9.758;2023-05-19T12:30:17;102316.97;;;23.91;31.79
5651;BME280;40241;52.684;9.758;2023-05-19T12:32:44;102323.88;;;23.56;31.70
5651;BME280;40241;52.684;9.758;2023-05-19T12:35:10;102319.16;;;23.38;31.84
5651;BME280;40241;52.684;9.758;2023-05-19T12:37:40;102308.25;;;23.22;31.19
5651;BME280;40241;52.684;9.758;2023-05-19T12:40:06;102317.75;;;23.05;32.28
5651;BME280;40241;52.684;9.758;2023-05-19T12:42:31;102311.38;;;22.92;32.31
5651;BME280;40241;52.684;9.758;2023-05-19T12:44:58;102303.81;;;22.87;32.59
5651;BME280;40241;52.684;9.758;2023-05-19T12:47:32;102315.56;;;22.85;31.94
5651;BME280;40241;52.684;9.758;2023-05-19T12:52:24;102317.19;;;22.81;32.33
5651;BME280;40241;52.684;9.758;2023-05-19T12:55:05;102300.03;;;22.97;31.38
5651;BME280;40241;52.684;9.758;2023-05-19T12:57:39;102296.03;;;23.19;30.70
5651;BME280;40241;52.684;9.758;2023-05-19T13:00:12;102300.56;;;23.22;31.51
5651;BME280;40241;52.684;9.758;2023-05-19T13:02:55;102295.06;;;23.03;30.54
5651;BME280;40241;52.684;9.758;2023-05-19T13:05:21;102300.03;;;22.97;31.78
5651;BME280;40241;52.684;9.758;2023-05-19T13:08:07;102291.94;;;22.94;31.27
5651;BME280;40241;52.684;9.758;2023-05-19T13:10:33;102292.81;;;23.02;32.03
5651;BME280;40241;52.684;9.758;2023-05-19T13:12:59;102292.78;;;23.28;31.79
5651;BME280;40241;52.684;9.758;2023-05-19T13:15:26;102289.31;;;23.48;31.60
5651;BME280;40241;52.684;9.758;2023-05-19T13:17:53;102286.69;;;23.50;31.25
5651;BME280;40241;52.684;9.758;2023-05-19T13:20:21;102299.34;;;23.44;30.80